Time;durP1;ratioP1;P1;durP2;ratioP2;P2;SDS_P1;SDS_P2;PMS_P1;PMS_P2;Temp;Humidity;BMP_temperature;BMP_pressure;BME280_temperature;BME280_humidity;BME280_pressure;Samples;Min_cycle;Max_cycle;Signal;HPM_P1;HPM_P2
2022/07/21 00:00:06;;;;;;;13.80;10.80;;;22.90;93.10;;;;;;5094316;28;20900;-65
2022/07/21 00:02:33;;;;;;;14.97;10.70;;;22.90;93.20;;;;;;5094508;28;21005;-65
2022/07/21 00:04:59;;;;;;;13.43;12.13;;;22.90;93.30;;;;;;5094373;28;20439;-65
2022/07/21 00:07:26;;;;;;;11.93;10.70;;;22.90;93.30;;;;;;5094854;28;20965;-65
2022/07/21 00:09:55;;;;;;;11.30;10.07;;;22.80;93.30;;;;;;5093481;28;20492;-65
2022/07/21 00:12:23;;;;;;;11.60;10.40;;;22.80;93.50;;;;;;5093715;28;20476;-72
2022/07/21 00:14:50;;;;;;;12.10;11.00;;;22.70;93.70;;;;;;5093835;28;20470;-65
2022/07/21 00:17:18;;;;;;;11.80;10.70;;;22.70;93.60;;;;;;5094290;28;20439;-65
2022/07/21 00:19:45;;;;;;;11.30;10.30;;;22.70;93.80;;;;;;5093621;28;20442;-65
2022/07/21 00:22:12;;;;;;;12.20;11.07;;;22.70;93.80;;;;;;5094131;28;20856;-66
2022/07/21 00:24:39;;;;;;;11.37;10.30;;;22.60;94.10;;;;;;5093559;28;20447;-65
2022/07/21 00:27:06;;;;;;;12.23;11.00;;;22.50;94.40;;;;;;5093958;28;20435;-65
2022/07/21 00:29:35;;;;;;;13.00;11.03;;;22.50;94.50;;;;;;5093785;28;20473;-65
2022/07/21 00:32:03;;;;;;;12.07;10.80;;;22.40;94.50;;;;;;5093575;28;20825;-65
2022/07/21 00:34:31;;;;;;;13.77;11.67;;;22.40;94.90;;;;;;5093776;28;20476;-66
2022/07/21 00:36:58;;;;;;;11.97;10.97;;;22.40;95.40;;;;;;5093778;28;20451;-65
2022/07/21 00:39:25;;;;;;;13.20;11.80;;;22.40;95.40;;;;;;5093670;28;20450;-65
2022/07/21 00:41:52;;;;;;;13.87;12.33;;;22.40;95.40;;;;;;5093274;28;20441;-65
2022/07/21 00:44:24;;;;;;;15.83;13.03;;;22.40;95.40;;;;;;5093706;28;20445;-65
2022/07/21 00:46:53;;;;;;;13.20;11.90;;;22.40;95.50;;;;;;5093532;28;20435;-65
2022/07/21 00:49:21;;;;;;;16.27;13.57;;;22.50;95.80;;;;;;5092685;28;20504;-66
2022/07/21 00:51:49;;;;;;;15.20;13.70;;;22.40;95.80;;;;;;5093250;28;20856;-65
2022/07/21 00:54:17;;;;;;;15.93;11.97;;;22.40;96.00;;;;;;5093228;28;21210;-65
2022/07/21 00:56:45;;;;;;;13.13;11.73;;;22.40;96.10;;;;;;5093288;28;20442;-68
2022/07/21 00:59:13;;;;;;;14.70;13.20;;;22.40;96.20;;;;;;5092771;28;20442;-66
2022/07/21 01:01:40;;;;;;;13.73;11.27;;;22.40;96.00;;;;;;5093076;28;20442;-65
2022/07/21 01:04:08;;;;;;;15.70;10.90;;;22.40;96.40;;;;;;5093134;28;20516;-65
2022/07/21 01:06:35;;;;;;;12.97;11.67;;;22.40;96.50;;;;;;5093593;28;20464;-65
2022/07/21 01:09:02;;;;;;;13.20;12.00;;;22.30;96.90;;;;;;5093019;28;20483;-65
2022/07/21 01:11:30;;;;;;;16.33;12.80;;;22.40;96.90;;;;;;5093092;28;20473;-65
2022/07/21 01:13:58;;;;;;;13.67;11.57;;;22.40;96.70;;;;;;5092729;28;20587;-65
2022/07/21 01:16:25;;;;;;;13.43;12.13;;;22.40;96.70;;;;;;5093395;28;20438;-65
2022/07/21 01:18:52;;;;;;;13.00;11.57;;;22.30;97.10;;;;;;5092350;28;20845;-65
2022/07/21 01:21:29;;;;;;;11.93;10.60;;;22.30;97.40;;;;;;5093037;28;20521;-65
2022/07/21 01:23:57;;;;;;;11.60;10.57;;;22.40;97.70;;;;;;5092968;28;20473;-65
2022/07/21 01:26:24;;;;;;;11.90;10.80;;;22.40;97.50;;;;;;5092458;28;20442;-72
2022/07/21 01:28:52;;;;;;;12.23;11.03;;;22.40;97.40;;;;;;5092150;28;20495;-65
2022/07/21 01:31:19;;;;;;;13.47;12.17;;;22.40;97.80;;;;;;5093200;28;20461;-65
2022/07/21 01:33:46;;;;;;;13.43;12.10;;;22.50;97.80;;;;;;5092225;28;20972;-65
2022/07/21 01:36:13;;;;;;;14.30;12.23;;;22.50;97.60;;;;;;5092777;28;20438;-65
2022/07/21 01:41:33;;;;;;;13.30;12.00;;;22.50;97.70;;;;;;5072156;28;20920;-65
2022/07/21 01:44:02;;;;;;;13.47;12.17;;;22.50;97.60;;;;;;5083142;28;20529;-65
2022/07/21 01:46:31;;;;;;;15.07;11.60;;;22.50;97.90;;;;;;5092312;28;20442;-65
2022/07/21 01:48:58;;;;;;;14.40;11.73;;;22.50;98.20;;;;;;5092898;28;20422;-65
2022/07/21 01:51:25;;;;;;;14.47;13.07;;;22.50;98.10;;;;;;5092660;28;20781;-65
2022/07/21 01:53:54;;;;;;;14.13;12.63;;;22.50;98.00;;;;;;5091333;28;20481;-65
2022/07/21 01:56:23;;;;;;;14.97;13.47;;;22.50;98.00;;;;;;5092271;28;20492;-65
2022/07/21 01:58:51;;;;;;;13.23;11.97;;;22.40;98.00;;;;;;5091829;28;20435;-65
2022/07/21 02:01:23;;;;;;;14.53;12.20;;;22.40;97.90;;;;;;5078280;28;20443;-65
2022/07/21 02:03:50;;;;;;;14.83;13.33;;;22.40;98.20;;;;;;5091575;28;20478;-65
2022/07/21 02:06:18;;;;;;;17.57;13.20;;;22.40;98.30;;;;;;5091819;28;20474;-66
2022/07/21 02:08:45;;;;;;;16.40;13.60;;;22.40;98.50;;;;;;5092043;28;20453;-66
2022/07/21 02:11:15;;;;;;;14.13;12.83;;;22.40;98.80;;;;;;5091586;28;20434;-67
2022/07/21 02:13:43;;;;;;;16.20;14.43;;;22.30;99.00;;;;;;5090773;28;20992;-65
2022/07/21 02:16:10;;;;;;;19.10;13.00;;;22.20;99.10;;;;;;5091433;28;20470;-66
2022/07/21 02:18:37;;;;;;;14.47;12.50;;;22.20;99.10;;;;;;5091722;28;20442;-65
2022/07/21 02:21:05;;;;;;;14.87;13.27;;;22.10;99.00;;;;;;5090992;28;20939;-65
2022/07/21 02:23:33;;;;;;;23.63;14.83;;;22.10;99.00;;;;;;5089727;28;20440;-65
2022/07/21 02:26:01;;;;;;;15.33;13.70;;;22.10;99.10;;;;;;5089345;28;20809;-65
2022/07/21 02:28:30;;;;;;;25.53;13.33;;;22.10;99.30;;;;;;5089558;28;20444;-65
2022/07/21 02:30:57;;;;;;;21.53;14.03;;;22.10;99.30;;;;;;5091256;28;20446;-65
2022/07/21 02:33:24;;;;;;;16.03;13.83;;;22.10;99.20;;;;;;5092263;28;20500;-65
2022/07/21 02:35:51;;;;;;;14.53;12.37;;;22.00;99.10;;;;;;5091338;28;20520;-65
2022/07/21 02:38:18;;;;;;;15.90;13.63;;;21.90;99.40;;;;;;5092014;28;20851;-65
2022/07/21 02:40:45;;;;;;;16.63;14.57;;;21.90;99.70;;;;;;5091316;28;20985;-65
2022/07/21 02:43:13;;;;;;;18.70;15.23;;;21.90;99.80;;;;;;5092551;28;20527;-65
2022/07/21 02:45:43;;;;;;;17.70;15.67;;;21.90;99.90;;;;;;5091803;28;20536;-66
2022/07/21 02:48:12;;;;;;;17.13;15.50;;;21.80;99.90;;;;;;5092406;28;20443;-65
2022/07/21 02:50:42;;;;;;;15.63;13.97;;;21.70;99.90;;;;;;5091299;28;20455;-65
2022/07/21 02:53:11;;;;;;;14.00;12.60;;;21.70;99.90;;;;;;5092826;28;20472;-66
2022/07/21 02:55:38;;;;;;;15.87;14.37;;;21.70;99.90;;;;;;5095719;28;20433;-65
2022/07/21 02:58:11;;;;;;;16.60;15.00;;;21.70;99.90;;;;;;5095081;28;20794;-65
2022/07/21 03:00:39;;;;;;;15.63;13.33;;;21.70;99.90;;;;;;5095257;28;20448;-65
2022/07/21 03:03:09;;;;;;;14.23;12.63;;;21.70;99.90;;;;;;5095930;28;20527;-65
2022/07/21 03:05:37;;;;;;;13.67;12.10;;;21.70;99.90;;;;;;5095007;28;20469;-65
2022/07/21 03:08:05;;;;;;;13.90;12.60;;;21.70;99.90;;;;;;5075630;28;20457;-71
2022/07/21 03:10:32;;;;;;;14.60;13.20;;;21.70;99.90;;;;;;5090797;28;20788;-66
2022/07/21 03:12:59;;;;;;;13.43;12.13;;;21.80;99.90;;;;;;5095351;28;20569;-66
2022/07/21 03:15:26;;;;;;;15.13;13.73;;;21.80;99.90;;;;;;5095109;28;20487;-65
2022/07/21 03:17:54;;;;;;;14.47;12.60;;;21.80;99.90;;;;;;5094965;28;20522;-65
2022/07/21 03:20:23;;;;;;;16.47;12.50;;;21.80;99.90;;;;;;5094941;28;20445;-66
2022/07/21 03:22:51;;;;;;;14.23;12.73;;;21.90;99.90;;;;;;5095354;28;20439;-67
2022/07/21 03:25:18;;;;;;;14.37;12.93;;;21.90;99.90;;;;;;5094764;28;20509;-67
2022/07/21 03:27:46;;;;;;;15.13;13.50;;;21.90;99.90;;;;;;5095326;28;20446;-67
2022/07/21 03:30:17;;;;;;;18.93;13.47;;;21.80;99.90;;;;;;5094754;28;20529;-67
2022/07/21 03:32:46;;;;;;;19.90;14.20;;;21.80;99.90;;;;;;5094527;28;20502;-67
2022/07/21 03:35:14;;;;;;;16.20;14.43;;;21.80;99.80;;;;;;5094840;28;20432;-66
2022/07/21 03:37:44;;;;;;;16.70;15.00;;;21.70;99.90;;;;;;5094835;28;20446;-66
2022/07/21 03:40:14;;;;;;;15.40;13.67;;;21.70;99.90;;;;;;5095092;28;20453;-67
2022/07/21 03:42:43;;;;;;;15.00;13.60;;;21.80;99.90;;;;;;5074903;28;20961;-67
2022/07/21 03:45:12;;;;;;;16.40;12.97;;;21.80;99.90;;;;;;5086972;28;20437;-67
2022/07/21 03:47:41;;;;;;;15.57;13.10;;;21.80;99.90;;;;;;5094868;28;20444;-67
2022/07/21 03:50:11;;;;;;;14.40;12.90;;;21.80;99.80;;;;;;5094548;28;20495;-66
2022/07/21 03:52:41;;;;;;;16.03;14.33;;;21.80;99.90;;;;;;5094079;28;20445;-70
2022/07/21 03:55:09;;;;;;;14.50;13.10;;;21.90;99.90;;;;;;5093368;28;20442;-67
2022/07/21 03:57:38;;;;;;;15.57;14.07;;;21.90;99.90;;;;;;5094226;28;20441;-67
2022/07/21 04:00:09;;;;;;;15.30;13.20;;;21.90;99.90;;;;;;5094523;28;20447;-66
2022/07/21 04:02:36;;;;;;;14.77;13.37;;;21.90;99.90;;;;;;5094525;28;20445;-67
2022/07/21 04:05:06;;;;;;;16.07;13.93;;;21.90;99.90;;;;;;5093535;28;20437;-66
2022/07/21 04:07:33;;;;;;;19.27;15.03;;;21.90;99.90;;;;;;5094552;28;20503;-67
2022/07/21 04:10:07;;;;;;;16.10;12.63;;;21.80;99.90;;;;;;5094243;28;20448;-67
2022/07/21 04:12:34;;;;;;;15.17;13.10;;;21.80;99.90;;;;;;5094211;28;20436;-67
2022/07/21 04:15:08;;;;;;;14.57;13.13;;;21.80;99.90;;;;;;5093923;28;20876;-66
2022/07/21 04:17:38;;;;;;;12.37;10.80;;;21.80;99.90;;;;;;5093518;28;20480;-67
2022/07/21 04:20:07;;;;;;;13.00;11.80;;;21.90;99.60;;;;;;5094475;28;20782;-67
2022/07/21 04:22:35;;;;;;;13.63;12.23;;;21.90;99.50;;;;;;5093953;28;20446;-67
2022/07/21 04:25:02;;;;;;;11.87;10.77;;;21.90;99.40;;;;;;5094448;28;20525;-67
2022/07/21 04:27:31;;;;;;;18.03;12.40;;;21.80;99.10;;;;;;5093680;28;20985;-67
2022/07/21 04:30:06;;;;;;;14.93;12.70;;;21.90;99.50;;;;;;5093797;28;20441;-66
2022/07/21 04:32:34;;;;;;;14.53;12.13;;;21.90;99.70;;;;;;5074161;28;20446;-66
2022/07/21 04:35:04;;;;;;;13.50;12.00;;;21.90;99.50;;;;;;5081611;28;20481;-66
2022/07/21 04:37:31;;;;;;;13.73;12.33;;;22.00;99.70;;;;;;5094034;28;20802;-67
2022/07/21 04:39:59;;;;;;;13.07;11.60;;;22.00;99.70;;;;;;5093843;28;20468;-66
2022/07/21 04:42:26;;;;;;;13.63;12.13;;;22.00;99.90;;;;;;5093916;28;21011;-66
2022/07/21 04:44:55;;;;;;;14.13;12.37;;;22.10;99.90;;;;;;5094008;28;20439;-67
2022/07/21 04:47:22;;;;;;;14.90;13.33;;;22.10;99.90;;;;;;5093697;28;20794;-66
2022/07/21 04:49:50;;;;;;;16.73;11.93;;;22.10;98.70;;;;;;5093875;28;20473;-67
2022/07/21 04:52:17;;;;;;;16.07;12.37;;;22.20;97.60;;;;;;5090423;28;20437;-68
2022/07/21 04:54:47;;;;;;;13.63;12.23;;;22.20;97.80;;;;;;5091441;28;20485;-69
2022/07/21 04:57:14;;;;;;;13.70;11.57;;;22.20;98.00;;;;;;5088576;28;20437;-67
2022/07/21 04:59:43;;;;;;;15.97;11.30;;;22.20;98.40;;;;;;5092038;28;20454;-66
2022/07/21 05:02:12;;;;;;;12.73;11.63;;;22.30;98.30;;;;;;5092106;28;20456;-67
2022/07/21 05:04:39;;;;;;;14.43;13.07;;;22.40;98.80;;;;;;5087482;28;20950;-67
2022/07/21 05:07:07;;;;;;;13.50;12.23;;;22.30;98.30;;;;;;5091513;28;20469;-66
2022/07/21 05:09:34;;;;;;;14.23;12.90;;;22.40;98.60;;;;;;5091325;28;20442;-67
2022/07/21 05:12:01;;;;;;;13.40;12.10;;;22.40;98.90;;;;;;5091872;28;20472;-67
2022/07/21 05:14:31;;;;;;;14.10;12.20;;;22.50;99.10;;;;;;5087432;28;20501;-67
2022/07/21 05:17:00;;;;;;;13.50;11.83;;;22.50;99.20;;;;;;5090311;28;20496;-67
2022/07/21 05:19:33;;;;;;;13.10;11.80;;;22.60;99.70;;;;;;5091666;28;20817;-67
2022/07/21 05:22:00;;;;;;;13.13;11.17;;;22.70;99.70;;;;;;5087655;28;20443;-67
2022/07/21 05:24:27;;;;;;;14.77;13.27;;;22.70;99.50;;;;;;5091388;28;20870;-67
2022/07/21 05:26:55;;;;;;;13.83;12.27;;;22.80;99.40;;;;;;5091837;28;21032;-67
2022/07/21 05:29:23;;;;;;;14.13;12.57;;;22.90;99.00;;;;;;5090840;28;20441;-67
2022/07/21 05:31:52;;;;;;;16.50;12.90;;;22.90;98.90;;;;;;5091755;28;20449;-67
2022/07/21 05:34:21;;;;;;;15.13;12.03;;;23.00;99.00;;;;;;5091361;28;20481;-67
2022/07/21 05:36:50;;;;;;;14.63;11.93;;;23.10;98.90;;;;;;5091366;28;20446;-68
2022/07/21 05:39:19;;;;;;;14.87;13.33;;;23.20;98.80;;;;;;5091099;28;20979;-67
2022/07/21 05:41:46;;;;;;;16.37;13.47;;;23.30;98.50;;;;;;5091295;28;20431;-66
2022/07/21 05:44:14;;;;;;;13.90;11.70;;;23.40;98.50;;;;;;5091152;28;20427;-67
2022/07/21 05:46:41;;;;;;;14.03;12.70;;;23.40;98.20;;;;;;5090406;28;20505;-67
2022/07/21 05:49:10;;;;;;;13.97;12.57;;;23.50;97.90;;;;;;5091160;28;20431;-67
2022/07/21 05:51:37;;;;;;;14.80;13.40;;;23.50;97.50;;;;;;5090642;28;20450;-67
2022/07/21 05:54:06;;;;;;;14.27;12.87;;;23.60;97.40;;;;;;5090460;28;20508;-69
2022/07/21 05:56:33;;;;;;;16.13;12.50;;;23.60;97.10;;;;;;5090548;28;20435;-67
2022/07/21 05:59:00;;;;;;;14.90;13.50;;;23.60;97.00;;;;;;5091840;28;20439;-67
2022/07/21 06:01:27;;;;;;;14.90;13.43;;;23.60;96.80;;;;;;5092036;28;20519;-67
2022/07/21 06:03:54;;;;;;;14.80;11.83;;;23.70;96.60;;;;;;5091342;28;20474;-68
2022/07/21 06:06:23;;;;;;;13.77;12.20;;;23.70;96.50;;;;;;5091417;28;20491;-67
2022/07/21 06:08:51;;;;;;;15.73;11.80;;;23.70;96.40;;;;;;5091589;28;20453;-67
2022/07/21 06:11:21;;;;;;;14.43;12.60;;;23.90;96.60;;;;;;5091778;28;20495;-67
2022/07/21 06:13:48;;;;;;;17.83;12.20;;;23.90;96.40;;;;;;5087187;28;20870;-67
2022/07/21 06:16:15;;;;;;;13.73;12.37;;;24.00;95.60;;;;;;5091726;28;20519;-68
2022/07/21 06:18:42;;;;;;;15.03;13.63;;;24.00;95.40;;;;;;5091375;28;20951;-67
2022/07/21 06:21:09;;;;;;;14.73;13.43;;;24.10;95.80;;;;;;5091306;28;20477;-68
2022/07/21 06:23:36;;;;;;;13.57;12.20;;;24.20;95.50;;;;;;5083657;28;20466;-68
2022/07/21 06:26:03;;;;;;;15.40;12.40;;;24.30;95.10;;;;;;5087438;28;20467;-67
2022/07/21 06:28:32;;;;;;;14.30;12.77;;;24.40;95.10;;;;;;5092358;28;20850;-67
2022/07/21 06:30:58;;;;;;;14.97;11.90;;;24.50;93.90;;;;;;5093662;28;20537;-69
2022/07/21 06:33:25;;;;;;;13.90;12.50;;;24.60;93.70;;;;;;5094428;28;20482;-67
2022/07/21 06:35:52;;;;;;;12.57;11.40;;;24.60;93.80;;;;;;5094361;28;20524;-67
2022/07/21 06:38:19;;;;;;;14.80;11.20;;;24.70;93.90;;;;;;5093887;28;20435;-68
2022/07/21 06:40:46;;;;;;;18.60;11.70;;;24.70;93.80;;;;;;5092462;28;20531;-68
2022/07/21 06:43:14;;;;;;;13.43;12.07;;;24.80;93.30;;;;;;5093394;28;20833;-68
2022/07/21 06:45:42;;;;;;;11.70;10.50;;;24.80;92.30;;;;;;5090754;28;20574;-67
2022/07/21 06:48:10;;;;;;;14.50;13.10;;;24.90;92.80;;;;;;5087551;28;20488;-68
2022/07/21 06:50:37;;;;;;;12.33;10.60;;;24.80;93.00;;;;;;5092259;28;20473;-67
2022/07/21 06:53:05;;;;;;;13.00;11.70;;;24.80;93.00;;;;;;5088469;28;20486;-68
2022/07/21 06:55:33;;;;;;;17.80;12.37;;;24.80;93.00;;;;;;5092512;28;20561;-67
2022/07/21 06:58:09;;;;;;;14.23;11.70;;;24.70;92.60;;;;;;5093613;28;20500;-70
2022/07/21 07:00:37;;;;;;;14.00;12.63;;;24.70;92.30;;;;;;5086807;28;20944;-67
2022/07/21 07:03:05;;;;;;;14.10;12.63;;;24.70;92.80;;;;;;5096042;28;20463;-67
2022/07/21 07:05:32;;;;;;;13.60;11.47;;;24.60;93.10;;;;;;5096638;28;20545;-67
2022/07/21 07:07:59;;;;;;;14.50;12.00;;;24.60;93.40;;;;;;5096664;28;20538;-67
2022/07/21 07:10:27;;;;;;;14.43;12.97;;;24.50;93.00;;;;;;5096338;28;20481;-67
2022/07/21 07:12:54;;;;;;;13.43;12.03;;;24.50;93.30;;;;;;5096188;28;20921;-67
2022/07/21 07:15:23;;;;;;;15.50;12.83;;;24.50;93.10;;;;;;5096315;28;20504;-67
2022/07/21 07:17:50;;;;;;;13.00;11.63;;;24.50;93.00;;;;;;5096567;28;20482;-66
2022/07/21 07:20:18;;;;;;;13.70;12.30;;;24.50;93.10;;;;;;5096313;28;20529;-66
2022/07/21 07:22:45;;;;;;;14.93;12.93;;;24.50;93.20;;;;;;5096393;28;20514;-66
2022/07/21 07:25:12;;;;;;;13.67;12.37;;;24.50;93.30;;;;;;5096449;28;20479;-66
2022/07/21 07:27:39;;;;;;;13.50;12.10;;;24.50;93.20;;;;;;5096480;28;20869;-67
2022/07/21 07:30:07;;;;;;;15.07;11.40;;;24.40;93.30;;;;;;5096263;28;20463;-67
2022/07/21 07:32:39;;;;;;;16.40;14.20;;;24.50;93.70;;;;;;5096272;28;20442;-66
2022/07/21 07:35:08;;;;;;;17.20;13.00;;;24.50;93.70;;;;;;5096325;28;20478;-66
2022/07/21 07:37:36;;;;;;;13.23;11.93;;;24.40;93.40;;;;;;5096194;28;20955;-66
2022/07/21 07:40:05;;;;;;;15.30;12.37;;;24.40;93.30;;;;;;5095017;28;20435;-68
2022/07/21 07:42:32;;;;;;;13.50;12.30;;;24.40;93.40;;;;;;5095784;28;20442;-66
2022/07/21 07:44:59;;;;;;;12.97;11.67;;;24.40;93.40;;;;;;5096010;28;20443;-66
2022/07/21 07:47:27;;;;;;;13.73;12.27;;;24.30;92.90;;;;;;5095998;28;20439;-66
2022/07/21 07:49:54;;;;;;;15.10;13.33;;;24.30;93.40;;;;;;5095460;28;20443;-66
2022/07/21 07:52:21;;;;;;;14.03;12.53;;;24.30;93.20;;;;;;5095820;28;20563;-66
2022/07/21 07:54:49;;;;;;;14.00;12.60;;;24.30;93.40;;;;;;5095376;28;20518;-66
2022/07/21 07:57:16;;;;;;;15.27;13.67;;;24.30;93.40;;;;;;5095493;28;20521;-66
2022/07/21 07:59:44;;;;;;;14.60;12.13;;;24.30;93.50;;;;;;5095630;28;20443;-67
2022/07/21 08:02:11;;;;;;;14.07;12.67;;;24.30;93.00;;;;;;5095396;28;20513;-67
2022/07/21 08:04:40;;;;;;;14.40;12.93;;;24.30;92.80;;;;;;5095666;28;20471;-66
2022/07/21 08:07:08;;;;;;;13.77;11.60;;;24.30;92.80;;;;;;5094980;28;20471;-66
2022/07/21 08:09:35;;;;;;;15.50;12.17;;;24.30;92.90;;;;;;5095448;28;20471;-66
2022/07/21 08:12:04;;;;;;;13.90;12.40;;;24.30;93.00;;;;;;5095493;28;20488;-66
2022/07/21 08:14:31;;;;;;;15.30;11.57;;;24.30;92.90;;;;;;5095104;28;21007;-66
2022/07/21 08:16:59;;;;;;;14.70;13.20;;;24.30;92.70;;;;;;5095351;28;20509;-66
2022/07/21 08:19:27;;;;;;;20.23;17.90;;;24.20;92.50;;;;;;5095340;28;20478;-66
2022/07/21 08:21:54;;;;;;;17.63;15.70;;;24.20;92.20;;;;;;5095283;28;20517;-66
2022/07/21 08:24:21;;;;;;;15.70;14.10;;;24.20;91.90;;;;;;5095232;28;20466;-66
2022/07/21 08:26:48;;;;;;;18.17;16.23;;;24.10;91.90;;;;;;5094995;28;20825;-66
2022/07/21 08:29:16;;;;;;;14.03;12.60;;;24.10;92.00;;;;;;5095019;28;20873;-66
2022/07/21 08:31:43;;;;;;;15.27;13.73;;;24.10;91.90;;;;;;5095225;28;20522;-66
2022/07/21 08:34:10;;;;;;;14.83;13.37;;;24.10;91.90;;;;;;5094953;28;20861;-66
2022/07/21 08:36:38;;;;;;;15.37;13.87;;;24.10;92.00;;;;;;5095023;28;20477;-66
2022/07/21 08:39:05;;;;;;;18.83;14.70;;;24.10;92.10;;;;;;5095173;28;20827;-66
2022/07/21 08:41:33;;;;;;;16.63;13.10;;;24.10;92.30;;;;;;5094607;28;20985;-66
2022/07/21 08:44:00;;;;;;;16.43;14.63;;;24.10;92.50;;;;;;5094512;28;20470;-66
2022/07/21 08:46:30;;;;;;;14.60;12.97;;;24.10;92.70;;;;;;5094779;28;20439;-66
2022/07/21 08:49:01;;;;;;;15.00;13.50;;;24.10;93.00;;;;;;5094772;28;20431;-66
2022/07/21 08:51:28;;;;;;;15.13;13.63;;;24.10;93.30;;;;;;5094023;28;20845;-66
2022/07/21 08:53:55;;;;;;;15.80;14.30;;;24.10;93.30;;;;;;5094345;28;20474;-66
2022/07/21 08:56:22;;;;;;;16.63;14.93;;;24.10;93.40;;;;;;5094014;28;20566;-66
2022/07/21 08:58:49;;;;;;;17.63;14.00;;;24.10;93.30;;;;;;5094472;28;20489;-66
2022/07/21 09:01:18;;;;;;;15.37;12.57;;;24.10;93.10;;;;;;5094458;28;20842;-66
2022/07/21 09:03:47;;;;;;;16.20;14.60;;;24.10;92.90;;;;;;5094454;28;20548;-66
2022/07/21 09:06:15;;;;;;;24.03;12.70;;;24.10;92.80;;;;;;5094248;28;20463;-65
2022/07/21 09:08:44;;;;;;;13.07;11.67;;;24.10;92.50;;;;;;5093888;28;20499;-66
2022/07/21 09:11:14;;;;;;;14.77;13.17;;;24.20;92.60;;;;;;5094237;28;20552;-65
2022/07/21 09:13:41;;;;;;;18.70;14.30;;;24.20;92.60;;;;;;5094228;28;20514;-66
2022/07/21 09:16:09;;;;;;;16.20;12.70;;;24.20;92.30;;;;;;5094237;28;20522;-66
2022/07/21 09:18:49;;;;;;;14.30;12.90;;;24.20;92.10;;;;;;5094291;28;20486;-66
2022/07/21 09:21:18;;;;;;;16.43;12.67;;;24.30;92.30;;;;;;5094008;28;20478;-66
2022/07/21 09:23:45;;;;;;;14.27;12.77;;;24.30;92.40;;;;;;5093870;28;20484;-66
2022/07/21 09:26:12;;;;;;;14.60;13.10;;;24.30;92.20;;;;;;5093600;28;20526;-72
2022/07/21 09:28:42;;;;;;;17.20;14.80;;;24.30;92.10;;;;;;5093826;28;20485;-66
2022/07/21 09:31:11;;;;;;;13.87;12.47;;;24.40;92.60;;;;;;5093858;28;20426;-67
2022/07/21 09:33:40;;;;;;;18.30;13.77;;;24.50;92.00;;;;;;5094052;28;20435;-66
2022/07/21 09:36:11;;;;;;;16.13;13.87;;;24.50;91.60;;;;;;5093423;28;20486;-66
2022/07/21 09:38:41;;;;;;;14.37;12.90;;;24.50;91.80;;;;;;5094102;28;20441;-66
2022/07/21 09:41:11;;;;;;;15.37;12.80;;;24.60;91.90;;;;;;5093885;28;20435;-66
2022/07/21 09:43:44;;;;;;;14.17;12.87;;;24.50;91.70;;;;;;5093864;28;20439;-66
2022/07/21 09:46:17;;;;;;;18.73;12.80;;;24.60;91.40;;;;;;5093745;28;20481;-66
2022/07/21 09:48:46;;;;;;;15.53;13.03;;;24.60;91.00;;;;;;5093871;28;20507;-66
2022/07/21 09:51:27;;;;;;;13.10;11.80;;;24.60;90.90;;;;;;5093575;28;20529;-66
2022/07/21 09:53:57;;;;;;;15.20;12.27;;;24.60;90.70;;;;;;5093432;28;20484;-66
2022/07/21 09:56:25;;;;;;;20.13;14.43;;;24.60;90.30;;;;;;5093281;28;20486;-72
2022/07/21 09:58:54;;;;;;;13.67;12.47;;;24.60;90.10;;;;;;5093715;28;20482;-66
2022/07/21 10:01:21;;;;;;;13.80;12.50;;;24.60;90.00;;;;;;5093298;28;20913;-66
2022/07/21 10:03:49;;;;;;;14.10;11.97;;;24.60;89.60;;;;;;5092890;28;20467;-66
2022/07/21 10:06:18;;;;;;;14.53;12.93;;;24.70;89.10;;;;;;5093153;28;20470;-66
2022/07/21 10:08:47;;;;;;;14.67;13.17;;;24.70;89.10;;;;;;5093299;28;20474;-67
2022/07/21 10:11:14;;;;;;;14.00;12.60;;;24.70;89.30;;;;;;5093133;28;20471;-66
2022/07/21 10:13:41;;;;;;;14.87;12.33;;;24.70;89.00;;;;;;5093134;28;20478;-66
2022/07/21 10:16:12;;;;;;;14.50;13.03;;;24.70;88.40;;;;;;5093221;28;20475;-66
2022/07/21 10:18:52;;;;;;;14.20;12.80;;;24.70;88.20;;;;;;5093506;28;20797;-66
2022/07/21 10:21:30;;;;;;;14.00;12.70;;;24.70;88.20;;;;;;5093359;28;20466;-66
2022/07/21 10:23:58;;;;;;;15.23;13.60;;;24.70;88.20;;;;;;5093378;28;20520;-66
2022/07/21 10:26:25;;;;;;;16.90;12.90;;;24.80;87.30;;;;;;5092648;28;20466;-66
2022/07/21 10:28:52;;;;;;;13.97;12.60;;;24.80;87.30;;;;;;5092797;28;20435;-66
2022/07/21 10:31:21;;;;;;;15.20;12.80;;;24.90;87.30;;;;;;5093161;28;20474;-66
2022/07/21 10:34:00;;;;;;;14.97;13.43;;;24.90;87.30;;;;;;5093172;28;20478;-66
2022/07/21 10:36:44;;;;;;;13.73;12.30;;;24.90;87.30;;;;;;5093143;28;20536;-66
2022/07/21 10:39:20;;;;;;;14.00;11.90;;;25.00;87.30;;;;;;5092692;28;20905;-67
2022/07/21 10:41:49;;;;;;;14.63;13.13;;;25.10;86.20;;;;;;5093047;28;20529;-66
2022/07/21 10:44:47;;;;;;;16.70;13.47;;;25.10;86.20;;;;;;5092944;28;20522;-66
2022/07/21 10:47:16;;;;;;;14.30;12.80;;;25.20;85.60;;;;;;5069342;28;20482;-66
2022/07/21 10:49:52;;;;;;;16.33;11.90;;;25.20;85.40;;;;;;5093060;28;20832;-66
2022/07/21 10:52:56;;;;;;;14.57;13.07;;;25.20;85.00;;;;;;5092759;28;20484;-66
2022/07/21 10:55:27;;;;;;;15.77;14.10;;;25.20;84.40;;;;;;5092852;28;20478;-66
2022/07/21 10:58:14;;;;;;;15.03;13.43;;;25.20;83.10;;;;;;5092895;28;20806;-66
2022/07/21 11:00:48;;;;;;;15.90;14.20;;;25.20;84.10;;;;;;5092907;28;20850;-66
2022/07/21 11:03:19;;;;;;;15.80;14.17;;;25.40;82.30;;;;;;5093003;28;20466;-66
2022/07/21 11:06:24;;;;;;;14.10;12.73;;;25.40;80.10;;;;;;5092601;28;20502;-66
2022/07/21 11:08:52;;;;;;;13.10;11.70;;;25.50;81.70;;;;;;5092892;28;20476;-66
2022/07/21 11:11:23;;;;;;;14.63;13.20;;;25.60;82.40;;;;;;5092605;28;20925;-66
2022/07/21 11:14:03;;;;;;;16.27;14.67;;;25.70;83.00;;;;;;5093570;28;20462;-66
2022/07/21 11:17:09;;;;;;;14.20;12.47;;;25.80;80.80;;;;;;5096371;28;20536;-66
2022/07/21 11:19:41;;;;;;;13.87;12.47;;;25.80;80.90;;;;;;5096750;28;20484;-66
2022/07/21 11:22:14;;;;;;;15.73;14.13;;;25.90;81.70;;;;;;5096333;28;20431;-66
2022/07/21 11:24:43;;;;;;;15.60;14.00;;;25.90;80.20;;;;;;5096489;28;20470;-66
2022/07/21 11:27:13;;;;;;;14.50;12.87;;;26.00;79.80;;;;;;5096090;28;20477;-66
2022/07/21 11:29:41;;;;;;;13.93;12.53;;;26.00;80.50;;;;;;5096154;28;20514;-67
2022/07/21 11:32:09;;;;;;;15.23;13.70;;;26.20;81.10;;;;;;5092738;28;20531;-66
2022/07/21 11:34:42;;;;;;;14.90;13.40;;;26.30;81.30;;;;;;5094642;28;20485;-67
2022/07/21 11:37:10;;;;;;;14.50;13.10;;;26.50;80.10;;;;;;5093341;28;20570;-66
2022/07/21 11:39:43;;;;;;;14.70;13.10;;;26.50;77.80;;;;;;5078900;28;20945;-66
2022/07/21 11:42:15;;;;;;;15.37;13.77;;;26.60;76.60;;;;;;5074817;28;20531;-67
2022/07/21 11:44:43;;;;;;;15.03;13.60;;;26.50;76.30;;;;;;5080821;28;20504;-66
2022/07/21 11:47:13;;;;;;;14.47;12.90;;;26.60;78.00;;;;;;5094599;28;20526;-66
2022/07/21 11:49:40;;;;;;;14.57;13.07;;;26.70;77.40;;;;;;5094740;28;20849;-66
2022/07/21 11:52:10;;;;;;;13.97;12.57;;;27.00;76.20;;;;;;5095310;28;20852;-66
2022/07/21 11:54:39;;;;;;;14.30;12.90;;;27.20;76.20;;;;;;5095160;28;20431;-66
2022/07/21 11:57:08;;;;;;;14.17;12.67;;;27.40;74.40;;;;;;5093348;28;21042;-66
2022/07/21 11:59:40;;;;;;;16.90;14.20;;;27.60;73.50;;;;;;5095525;28;20524;-66
2022/07/21 12:02:10;;;;;;;14.43;13.03;;;27.50;72.40;;;;;;5095448;28;20476;-66
2022/07/21 12:04:44;;;;;;;14.50;13.10;;;27.60;70.90;;;;;;5094348;28;20428;-66
2022/07/21 12:07:17;;;;;;;17.03;14.10;;;27.80;70.90;;;;;;5095893;28;20474;-67
2022/07/21 12:09:48;;;;;;;15.33;13.80;;;27.90;70.60;;;;;;5095045;28;20427;-67
2022/07/21 12:12:16;;;;;;;13.00;11.80;;;28.00;70.50;;;;;;5095237;28;20525;-66
2022/07/21 12:14:48;;;;;;;13.97;12.57;;;28.20;69.60;;;;;;5095338;28;20838;-66
2022/07/21 12:17:31;;;;;;;14.17;12.70;;;28.40;70.00;;;;;;5095892;28;20490;-66
2022/07/21 12:19:58;;;;;;;14.50;13.10;;;28.60;68.60;;;;;;5095014;28;20463;-66
2022/07/21 12:22:37;;;;;;;14.77;13.30;;;28.80;67.90;;;;;;5095304;28;20767;-66
2022/07/21 12:25:07;;;;;;;14.93;13.63;;;28.90;67.10;;;;;;5094769;28;20443;-66
2022/07/21 12:27:36;;;;;;;14.30;12.80;;;28.90;64.80;;;;;;5094273;28;20442;-66
2022/07/21 12:30:05;;;;;;;13.87;12.47;;;28.80;64.30;;;;;;5094616;28;20534;-66
2022/07/21 12:32:49;;;;;;;14.50;13.00;;;28.80;64.30;;;;;;5094879;28;20910;-66
2022/07/21 12:35:25;;;;;;;14.10;12.60;;;28.90;64.40;;;;;;5094327;28;20463;-66
2022/07/21 12:38:00;;;;;;;15.07;13.60;;;28.90;64.90;;;;;;5094270;28;20521;-66
2022/07/21 12:40:31;;;;;;;13.43;12.23;;;28.90;63.20;;;;;;5094164;28;20504;-66